Time;durP1;ratioP1;P1;durP2;ratioP2;P2;SDS_P1;SDS_P2;PMS_P1;PMS_P2;Temp;Humidity;BMP_temperature;BMP_pressure;BME280_temperature;BME280_humidity;BME280_pressure;Samples;Min_cycle;Max_cycle;Signal;HPM_P1;HPM_P2
2022/04/05 00:00:15;;;;;;;29.83;3.75;;;4.80;99.90;;;3.24;89.43;98969.50;4982164;28;20072;-72
2022/04/05 00:02:41;;;;;;;19.83;2.28;;;4.80;99.90;;;3.25;89.76;98968.56;4979487;28;20125;-72
2022/04/05 00:05:07;;;;;;;15.00;1.83;;;4.80;99.90;;;3.25;89.66;98975.53;4983153;28;20022;-72
2022/04/05 00:07:33;;;;;;;27.45;2.88;;;4.80;99.90;;;3.29;89.95;98964.09;4978321;28;20089;-73
2022/04/05 00:10:00;;;;;;;33.88;3.22;;;4.80;99.90;;;3.25;89.82;98971.19;4981902;28;20039;-72
2022/04/05 00:12:26;;;;;;;26.55;3.03;;;4.80;99.90;;;3.27;90.12;98966.75;4962942;28;20049;-71
2022/04/05 00:14:52;;;;;;;25.23;2.85;;;4.90;99.90;;;3.30;89.53;98965.75;4981458;28;22081;-73
2022/04/05 00:17:19;;;;;;;29.60;2.72;;;4.90;99.90;;;3.34;89.73;98971.69;4972797;28;20122;-72
2022/04/05 00:19:45;;;;;;;18.13;2.35;;;4.90;99.90;;;3.34;90.00;98967.31;4958547;28;20030;-72
2022/04/05 00:22:11;;;;;;;31.23;3.95;;;4.90;99.90;;;3.35;90.03;98976.81;4997072;28;20100;-72
2022/04/05 00:24:37;;;;;;;37.17;2.80;;;4.90;99.90;;;3.33;89.90;98973.44;4972441;28;20120;-72
2022/04/05 00:27:03;;;;;;;24.67;3.28;;;4.90;99.90;;;3.33;90.31;98980.41;4975698;28;20033;-72
2022/04/05 00:29:29;;;;;;;23.15;2.58;;;4.90;99.90;;;3.33;90.56;98976.06;4982556;28;20038;-73
2022/04/05 00:31:55;;;;;;;25.73;3.83;;;4.80;99.90;;;3.29;90.27;98974.50;4978124;28;20408;-72
2022/04/05 00:34:25;;;;;;;27.52;3.03;;;4.90;99.90;;;3.35;90.52;98978.56;4980329;28;20031;-72
2022/04/05 00:36:53;;;;;;;24.00;2.95;;;4.90;99.90;;;3.37;90.42;98981.94;4980827;28;20091;-72
2022/04/05 00:39:20;;;;;;;13.25;2.38;;;4.90;99.90;;;3.32;90.18;98983.91;4980923;28;20037;-72
2022/04/05 00:41:50;;;;;;;38.85;3.63;;;4.90;99.90;;;3.37;90.66;98981.94;4968792;28;20037;-72
2022/04/05 00:44:17;;;;;;;21.85;2.67;;;4.90;99.90;;;3.37;90.55;98976.72;4971932;28;20050;-73
2022/04/05 00:46:43;;;;;;;30.20;2.92;;;4.90;99.90;;;3.36;90.52;98980.25;4980455;28;20562;-72
2022/04/05 00:49:15;;;;;;;15.45;2.65;;;4.90;99.90;;;3.37;90.35;98988.00;4981154;28;20084;-72
2022/04/05 00:51:41;;;;;;;24.52;2.47;;;4.90;99.90;;;3.38;90.50;98992.28;4965855;28;20431;-72
2022/04/05 00:54:12;;;;;;;25.38;2.95;;;4.90;99.90;;;3.40;90.09;98992.22;4969700;28;20096;-72
2022/04/05 00:56:40;;;;;;;13.68;1.88;;;4.90;99.90;;;3.31;89.59;98993.47;4980634;28;20049;-72
2022/04/05 00:59:09;;;;;;;22.63;2.92;;;4.90;99.90;;;3.35;89.81;98995.03;4979449;28;20022;-72
2022/04/05 01:04:02;;;;;;;19.67;2.35;;;4.90;99.90;;;3.34;89.78;99000.31;4987822;28;20055;-73
2022/04/05 01:06:39;;;;;;;26.58;2.90;;;4.90;99.90;;;3.35;89.67;99017.59;4995885;28;20145;-72
2022/04/05 01:09:09;;;;;;;14.02;1.77;;;4.90;99.90;;;3.32;89.66;99010.75;4972967;28;20046;-72
2022/04/05 01:11:36;;;;;;;29.95;3.10;;;4.90;99.90;;;3.36;89.39;99021.88;4962627;28;20073;-72
2022/04/05 01:14:03;;;;;;;29.33;2.47;;;4.90;99.90;;;3.37;89.24;99027.03;4973416;28;20131;-72
2022/04/05 01:16:31;;;;;;;20.95;2.65;;;4.90;99.90;;;3.40;89.54;99029.50;4974024;28;20026;-71
2022/04/05 01:18:57;;;;;;;27.20;3.20;;;5.00;99.90;;;3.37;89.07;99027.03;4966558;28;20044;-72
2022/04/05 01:21:24;;;;;;;25.42;2.55;;;5.00;99.90;;;3.39;89.02;99025.22;4988357;28;20107;-73
2022/04/05 01:24:13;;;;;;;18.23;2.17;;;4.90;99.90;;;3.40;89.12;99023.44;4981165;28;20049;-72
2022/04/05 01:26:46;;;;;;;19.88;2.47;;;4.90;99.90;;;3.40;89.14;99039.06;4978388;28;20037;-73
2022/04/05 01:29:14;;;;;;;22.08;2.30;;;5.00;99.90;;;3.32;89.36;99030.75;4994795;28;20018;-72
2022/04/05 01:31:44;;;;;;;29.92;3.63;;;4.90;99.90;;;3.33;88.92;99035.88;4980187;28;20034;-71
2022/04/05 01:34:11;;;;;;;22.10;2.80;;;4.90;99.90;;;3.31;89.06;99042.91;4980127;28;20068;-72
2022/04/05 01:36:51;;;;;;;9.98;1.88;;;4.90;99.90;;;3.24;88.94;99044.06;4982829;28;20041;-72
2022/04/05 01:39:23;;;;;;;24.42;2.80;;;4.90;99.90;;;3.22;88.88;99056.31;4979412;28;20049;-72
2022/04/05 01:41:56;;;;;;;25.10;2.60;;;4.80;99.90;;;3.17;88.64;99042.66;4982571;28;20598;-71
2022/04/05 01:44:22;;;;;;;21.27;2.72;;;4.80;99.90;;;3.21;88.96;99047.66;4980270;28;20022;-72
2022/04/05 01:46:48;;;;;;;25.17;2.65;;;4.80;99.90;;;3.19;88.94;99041.66;4977606;28;20057;-72
2022/04/05 01:49:15;;;;;;;21.95;2.70;;;4.80;99.90;;;3.21;89.05;99054.63;4983619;28;20019;-71
2022/04/05 01:51:44;;;;;;;22.00;2.47;;;4.80;99.90;;;3.22;88.60;99053.72;4977059;28;20061;-72
2022/04/05 01:54:13;;;;;;;16.67;2.85;;;4.80;99.90;;;3.21;88.66;99058.06;4980561;28;20054;-72
2022/04/05 01:56:46;;;;;;;21.98;2.05;;;4.70;99.90;;;3.16;87.78;99053.97;4979087;28;20050;-72
2022/04/05 01:59:18;;;;;;;19.80;2.30;;;4.70;99.90;;;3.16;87.53;99054.81;4969999;28;20028;-72
2022/04/05 02:01:44;;;;;;;13.38;2.40;;;4.70;99.90;;;3.18;86.72;99062.56;4982377;28;20511;-73
2022/04/05 02:04:12;;;;;;;20.75;2.45;;;4.70;99.90;;;3.14;86.59;99050.59;4981340;28;20168;-72
2022/04/05 02:06:40;;;;;;;9.93;1.33;;;4.70;99.90;;;3.15;86.41;99060.06;4980756;28;20089;-72
2022/04/05 02:09:07;;;;;;;13.48;1.70;;;4.70;99.90;;;3.13;85.73;99054.94;4994758;28;20038;-72
2022/04/05 02:11:35;;;;;;;9.35;1.55;;;4.70;99.90;;;3.06;85.89;99069.97;4963464;28;20026;-72
2022/04/05 02:14:04;;;;;;;6.65;1.77;;;4.70;99.90;;;3.00;85.76;99070.25;4978177;28;20084;-72
2022/04/05 02:16:31;;;;;;;13.30;1.75;;;4.70;99.90;;;3.07;86.52;99073.44;4963816;28;20042;-72
2022/04/05 02:18:57;;;;;;;12.23;1.67;;;4.70;99.90;;;3.10;86.23;99067.25;5012321;28;20129;-73
2022/04/05 02:21:22;;;;;;;16.92;1.70;;;4.70;99.90;;;3.05;86.46;99068.28;4968959;28;20038;-72
2022/04/05 02:23:48;;;;;;;18.80;2.17;;;4.70;99.90;;;2.99;86.01;99070.28;4979907;28;20215;-72
2022/04/05 02:26:15;;;;;;;10.00;1.42;;;4.70;99.90;;;2.98;86.11;99064.25;4981995;28;20105;-72
2022/04/05 02:28:42;;;;;;;20.80;1.95;;;4.60;99.90;;;3.01;86.05;99060.69;4970129;28;20041;-72
2022/04/05 02:31:08;;;;;;;15.02;1.83;;;4.60;99.90;;;3.02;86.06;99077.97;4978485;28;20100;-71
2022/04/05 02:33:34;;;;;;;25.27;2.83;;;4.60;99.90;;;2.97;86.29;99070.34;4978744;28;20045;-72
2022/04/05 02:36:03;;;;;;;15.73;1.77;;;4.60;99.90;;;3.03;86.57;99072.69;4973816;28;20029;-72
2022/04/05 02:38:30;;;;;;;16.67;1.92;;;4.60;99.90;;;3.04;86.65;99076.13;4981043;28;20112;-72
2022/04/05 02:40:59;;;;;;;16.00;2.38;;;4.60;99.90;;;3.01;86.55;99079.72;4971459;28;20499;-72
2022/04/05 02:43:25;;;;;;;20.85;3.15;;;4.60;99.90;;;3.03;86.43;99084.88;4977071;28;20034;-72
2022/04/05 02:45:55;;;;;;;15.13;2.03;;;4.60;99.90;;;3.01;86.04;99090.13;4997539;28;20042;-72
2022/04/05 02:48:23;;;;;;;12.73;1.77;;;4.60;99.90;;;2.95;85.81;99092.97;4990009;28;20049;-72
2022/04/05 02:50:50;;;;;;;14.18;1.90;;;4.60;99.90;;;2.95;85.42;99079.97;4987713;28;20047;-72
2022/04/05 02:53:16;;;;;;;17.75;2.03;;;4.50;99.90;;;2.91;86.47;99093.16;4978883;28;20114;-71
2022/04/05 02:55:42;;;;;;;12.52;2.15;;;4.50;99.90;;;2.87;86.71;99097.63;5006971;28;20026;-72
2022/04/05 02:58:09;;;;;;;19.00;2.75;;;4.50;99.90;;;2.79;86.52;99094.53;4976068;28;20095;-72
2022/04/05 03:00:36;;;;;;;11.43;1.85;;;4.40;99.90;;;2.67;86.42;99104.50;4985455;28;20750;-72
2022/04/05 03:03:03;;;;;;;11.40;1.35;;;4.30;99.90;;;2.58;85.70;99099.66;4982072;28;20030;-72
2022/04/05 03:05:30;;;;;;;22.30;1.77;;;4.30;99.90;;;2.51;85.96;99111.22;4983045;28;20058;-72
2022/04/05 03:07:56;;;;;;;18.20;2.20;;;4.20;99.90;;;2.48;85.86;99116.53;4982167;28;20034;-71
2022/04/05 03:10:23;;;;;;;11.75;1.90;;;4.10;99.90;;;2.39;85.49;99122.91;4983467;28;20023;-71
2022/04/05 03:12:48;;;;;;;9.35;1.48;;;4.20;99.90;;;2.36;85.61;99124.81;4980864;28;20118;-72
2022/04/05 03:15:14;;;;;;;10.45;1.88;;;4.00;99.90;;;2.24;85.99;99129.53;4983074;28;20034;-72
2022/04/05 03:17:45;;;;;;;25.63;3.30;;;4.00;99.90;;;2.20;86.33;99134.91;4973686;28;20035;-72
2022/04/05 03:20:13;;;;;;;13.55;1.63;;;3.90;99.90;;;2.13;86.38;99134.31;4981132;28;20422;-72
2022/04/05 03:22:43;;;;;;;12.40;1.60;;;3.80;99.90;;;2.06;86.48;99148.44;4976174;28;20046;-72
2022/04/05 03:25:10;;;;;;;11.25;1.60;;;3.80;99.90;;;2.07;86.28;99144.91;4964651;28;20441;-72
2022/04/05 03:27:41;;;;;;;8.98;1.35;;;3.80;99.90;;;2.07;86.24;99152.69;4984402;28;20025;-72
2022/04/05 03:30:09;;;;;;;14.07;1.67;;;3.80;99.90;;;2.03;86.36;99151.13;4984066;28;20053;-71
2022/04/05 03:32:36;;;;;;;8.10;1.73;;;3.80;99.90;;;2.01;86.07;99145.16;4981457;28;20100;-72
2022/04/05 03:35:03;;;;;;;6.53;1.45;;;3.70;99.90;;;2.01;86.00;99161.59;4982474;28;20029;-72
2022/04/05 03:37:29;;;;;;;12.98;2.42;;;3.70;99.90;;;1.97;85.97;99159.16;4999288;28;20046;-72
2022/04/05 03:39:55;;;;;;;13.40;1.75;;;3.70;99.90;;;1.98;86.04;99163.44;4975403;28;20069;-71
2022/04/05 03:42:21;;;;;;;8.13;1.30;;;3.60;99.90;;;1.97;86.22;99167.78;4988979;28;20869;-71
2022/04/05 03:44:48;;;;;;;10.55;1.75;;;3.70;99.90;;;1.97;86.41;99166.94;5005965;28;20038;-71
2022/04/05 03:47:14;;;;;;;12.52;1.80;;;3.70;99.90;;;1.98;86.44;99173.81;4973783;28;20015;-72
2022/04/05 03:49:41;;;;;;;21.77;2.30;;;3.70;99.90;;;2.07;86.47;99178.66;4975900;28;20044;-73
2022/04/05 03:52:07;;;;;;;18.77;2.05;;;3.70;99.90;;;2.13;86.01;99181.03;4986218;28;20028;-73
2022/04/05 03:54:36;;;;;;;17.30;2.33;;;3.80;99.90;;;2.12;86.13;99176.78;4997320;28;20033;-72
2022/04/05 03:57:02;;;;;;;19.98;1.65;;;3.70;99.90;;;2.14;85.49;99177.56;4983240;28;21414;-71
2022/04/05 03:59:28;;;;;;;10.30;2.28;;;3.80;99.90;;;2.16;84.92;99167.09;4983738;28;20053;-72
2022/04/05 04:01:54;;;;;;;13.30;2.20;;;3.80;99.90;;;2.13;84.78;99178.44;4982846;28;20045;-73
2022/04/05 04:04:20;;;;;;;14.55;1.23;;;3.80;99.90;;;2.17;84.95;99187.81;4981419;28;20158;-72
2022/04/05 04:06:46;;;;;;;15.48;1.55;;;3.80;99.90;;;2.20;84.25;99190.31;4980158;28;20030;-72
2022/04/05 04:09:12;;;;;;;16.77;2.75;;;3.90;99.90;;;2.22;83.60;99192.84;4999926;28;20514;-72
2022/04/05 04:11:42;;;;;;;14.50;1.58;;;3.90;99.90;;;2.24;83.35;99199.66;4979039;28;20031;-72
2022/04/05 04:14:08;;;;;;;5.05;1.33;;;3.80;99.90;;;2.18;82.78;99199.91;4981163;28;20045;-72
2022/04/05 04:16:35;;;;;;;14.90;2.13;;;3.80;99.90;;;2.13;82.14;99199.22;4982794;28;20380;-72
2022/04/05 04:19:01;;;;;;;13.45;1.73;;;3.80;99.90;;;2.06;82.54;99202.94;4956474;28;20034;-72
2022/04/05 04:21:27;;;;;;;15.80;2.03;;;3.80;99.90;;;2.12;82.64;99212.28;4984104;28;20551;-72
2022/04/05 04:23:53;;;;;;;17.00;2.63;;;3.70;99.90;;;2.11;82.46;99216.59;4982239;28;20027;-72
2022/04/05 04:26:19;;;;;;;16.63;1.52;;;3.70;99.90;;;2.11;82.47;99215.75;5002391;28;20026;-72
2022/04/05 04:28:49;;;;;;;22.38;2.03;;;3.70;99.90;;;2.07;82.83;99214.19;4981493;28;20659;-73
2022/04/05 04:31:15;;;;;;;17.63;2.10;;;3.70;99.90;;;2.13;82.87;99222.59;4982060;28;20043;-72
2022/04/05 04:33:41;;;;;;;10.93;1.80;;;3.70;99.90;;;2.12;83.15;99213.13;4975316;28;20033;-72
2022/04/05 04:36:07;;;;;;;13.77;1.98;;;3.70;99.90;;;2.12;83.01;99228.69;4973117;28;20109;-72
2022/04/05 04:38:34;;;;;;;17.10;1.98;;;3.70;99.90;;;2.15;83.65;99236.38;4974326;28;20024;-72
2022/04/05 04:41:03;;;;;;;31.63;2.67;;;3.70;99.90;;;2.14;83.96;99232.09;4982354;28;20030;-72
2022/04/05 04:43:30;;;;;;;17.23;2.13;;;3.80;99.90;;;2.17;83.89;99247.53;4977854;28;20041;-72
2022/04/05 04:45:56;;;;;;;17.65;2.28;;;3.80;99.90;;;2.18;84.06;99238.88;4980732;28;20026;-72
2022/04/05 04:48:22;;;;;;;23.10;1.95;;;3.80;99.90;;;2.24;84.37;99243.81;4979327;28;20446;-73
2022/04/05 04:50:49;;;;;;;17.67;2.30;;;3.80;99.90;;;2.37;84.19;99261.56;4998680;28;20053;-73
2022/04/05 04:53:16;;;;;;;12.05;1.75;;;3.90;99.90;;;2.39;84.26;99252.81;4980090;28;20613;-71
2022/04/05 04:55:42;;;;;;;27.77;1.92;;;3.90;99.90;;;2.49;83.83;99255.94;4973025;28;20049;-72
2022/04/05 04:58:08;;;;;;;18.70;2.13;;;4.00;99.90;;;2.59;82.89;99254.69;4993740;28;20034;-72
2022/04/05 05:00:35;;;;;;;18.38;2.67;;;4.10;99.90;;;2.74;82.37;99253.25;4981158;28;20118;-72
2022/04/05 05:03:01;;;;;;;14.23;2.05;;;4.20;99.90;;;2.95;81.61;99264.56;4973436;28;20038;-72
2022/04/05 05:05:28;;;;;;;12.85;1.50;;;4.30;99.90;;;3.02;80.80;99259.97;4979854;28;20080;-71
2022/04/05 05:07:54;;;;;;;14.80;2.47;;;4.40;99.90;;;3.16;79.92;99259.47;4966386;28;20037;-72
2022/04/05 05:10:23;;;;;;;11.15;2.17;;;4.50;99.90;;;3.31;79.45;99266.66;4988001;28;20026;-72
2022/04/05 05:12:50;;;;;;;21.42;2.90;;;4.60;99.90;;;3.53;79.16;99278.78;4970706;28;20034;-72
2022/04/05 05:15:19;;;;;;;15.35;2.25;;;4.70;99.90;;;3.73;78.02;99280.56;4979586;28;20022;-72
2022/04/05 05:17:47;;;;;;;15.98;2.08;;;4.90;99.90;;;4.10;76.66;99279.84;4983663;28;20113;-72
2022/04/05 05:20:15;;;;;;;17.38;2.30;;;5.20;99.90;;;4.65;74.54;99297.44;4980609;28;20042;-73
2022/04/05 05:22:42;;;;;;;16.02;1.40;;;5.40;99.90;;;5.08;73.31;99306.75;4973999;28;20035;-72
2022/04/05 05:25:10;;;;;;;16.65;2.50;;;5.90;99.90;;;7.08;68.37;99299.25;4981827;28;20496;-73
2022/04/05 05:27:38;;;;;;;18.40;2.35;;;6.70;99.90;;;9.22;61.46;99307.63;4981004;28;20403;-72
2022/04/05 05:30:08;;;;;;;24.50;2.78;;;7.50;99.90;;;10.41;55.51;99295.44;4980161;28;20061;-71
2022/04/05 05:32:46;;;;;;;25.40;3.53;;;8.10;99.90;;;11.33;52.80;99306.56;4961961;28;20041;-72
2022/04/05 05:35:17;;;;;;;18.85;2.53;;;8.30;99.90;;;8.77;54.43;99307.81;4952734;28;20489;-72
2022/04/05 05:37:44;;;;;;;17.80;2.83;;;7.80;99.90;;;6.99;58.37;99315.47;4979842;28;20483;-73
2022/04/05 05:40:12;;;;;;;22.48;2.30;;;7.40;99.90;;;6.41;62.52;99327.22;4971025;28;20042;-72
2022/04/05 05:42:53;;;;;;;15.25;2.42;;;7.10;99.90;;;5.76;65.02;99338.28;4973335;28;20065;-72
2022/04/05 05:45:23;;;;;;;13.45;2.22;;;6.70;99.90;;;5.42;66.58;99346.91;4979408;28;20026;-72
2022/04/05 05:47:50;;;;;;;15.57;2.22;;;6.50;99.90;;;5.11;68.15;99356.16;4971105;28;20037;-72
2022/04/05 05:50:18;;;;;;;15.48;3.13;;;6.20;99.90;;;4.80;69.75;99345.44;4983377;28;20033;-73
2022/04/05 05:52:45;;;;;;;18.10;2.05;;;6.10;99.90;;;4.90;69.98;99349.31;4979431;28;20057;-71
2022/04/05 05:55:15;;;;;;;13.00;1.95;;;6.10;99.90;;;5.01;70.44;99349.69;4980049;28;20046;-72
2022/04/05 05:57:42;;;;;;;34.15;3.00;;;6.10;99.90;;;4.91;70.78;99358.84;4980599;28;20482;-73
2022/04/05 06:00:12;;;;;;;20.85;2.58;;;6.10;99.90;;;4.89;71.43;99368.50;4984481;28;20050;-72
2022/04/05 06:02:40;;;;;;;18.73;2.17;;;6.10;99.90;;;4.91;72.08;99374.50;4982117;28;20034;-72
2022/04/05 06:05:08;;;;;;;19.40;2.50;;;6.00;99.90;;;4.55;72.66;99382.16;4983651;28;20060;-72
2022/04/05 06:07:35;;;;;;;17.60;2.28;;;5.90;99.90;;;4.53;73.23;99382.22;4977142;28;20023;-73
2022/04/05 06:10:04;;;;;;;16.77;2.38;;;5.90;99.90;;;4.56;73.45;99381.25;4962941;28;20084;-72
2022/04/05 06:12:30;;;;;;;21.52;2.92;;;5.90;99.90;;;4.71;74.09;99391.88;4980452;28;20056;-72
2022/04/05 06:14:57;;;;;;;13.65;1.85;;;6.10;99.90;;;6.08;71.91;99388.16;4983258;28;20080;-73
2022/04/05 06:17:24;;;;;;;33.03;4.10;;;6.40;99.90;;;6.21;69.17;99390.16;4983633;28;20030;-72
2022/04/05 06:19:53;;;;;;;19.25;2.55;;;6.60;99.90;;;6.05;69.49;99388.31;4981813;28;20052;-72
2022/04/05 06:22:19;;;;;;;24.50;2.97;;;6.70;99.90;;;5.85;69.02;99399.72;4976873;28;20034;-71
2022/04/05 06:24:46;;;;;;;20.50;3.08;;;6.90;99.90;;;6.63;68.90;99395.00;4959010;28;20383;-72
2022/04/05 06:27:13;;;;;;;21.38;2.53;;;6.90;99.90;;;6.28;68.10;99388.91;4984371;28;20129;-72
2022/04/05 06:29:39;;;;;;;20.70;2.65;;;7.00;99.90;;;6.14;68.77;99405.31;4973343;28;20038;-72
2022/04/05 06:32:06;;;;;;;28.55;3.10;;;6.90;99.90;;;5.62;69.70;99406.03;4986176;28;20046;-72
2022/04/05 06:34:32;;;;;;;15.93;2.30;;;6.90;99.90;;;5.68;70.61;99418.78;4965427;28;20072;-73
2022/04/05 06:36:58;;;;;;;21.60;2.78;;;6.70;99.90;;;5.52;69.08;99407.38;4990316;28;20116;-71
2022/04/05 06:39:25;;;;;;;12.50;2.25;;;6.70;99.90;;;5.63;68.90;99399.03;4983902;28;20027;-72
2022/04/05 06:41:53;;;;;;;17.33;2.85;;;6.80;99.90;;;5.90;69.28;99416.00;4983716;28;20034;-71
2022/04/05 06:44:19;;;;;;;18.48;2.80;;;6.90;99.90;;;7.56;66.58;99428.44;4973019;28;20022;-72
2022/04/05 06:46:45;;;;;;;15.65;2.03;;;7.40;99.90;;;8.39;60.93;99420.28;4984086;28;20045;-72
2022/04/05 06:49:12;;;;;;;19.80;2.92;;;7.80;99.90;;;9.37;58.57;99431.91;4967050;28;20026;-72
2022/04/05 06:51:38;;;;;;;16.08;2.92;;;8.30;99.90;;;10.63;55.33;99442.25;4984934;28;20026;-71
2022/04/05 06:54:05;;;;;;;9.00;2.20;;;8.80;99.90;;;11.15;52.74;99443.94;4998040;28;20653;-72
2022/04/05 06:56:31;;;;;;;11.60;1.33;;;9.50;99.90;;;12.14;50.57;99455.41;4981856;28;20030;-71
2022/04/05 06:58:57;;;;;;;11.35;2.38;;;10.10;99.90;;;12.68;48.16;99455.75;4986591;28;20023;-72
2022/04/05 07:01:23;;;;;;;14.00;2.97;;;10.30;99.90;;;12.65;47.05;99461.25;4983093;28;20123;-72
2022/04/05 07:03:50;;;;;;;13.23;2.00;;;10.70;99.90;;;13.16;44.88;99464.50;4985163;28;20054;-72
2022/04/05 07:06:16;;;;;;;18.20;2.72;;;11.10;99.90;;;13.31;44.53;99469.44;4982976;28;20034;-72
2022/04/05 07:08:42;;;;;;;13.90;2.75;;;11.10;99.90;;;10.44;47.80;99456.59;4986400;28;20026;-72
2022/04/05 07:11:08;;;;;;;14.13;2.83;;;10.80;99.90;;;11.23;47.32;99467.97;4980529;28;20031;-72
2022/04/05 07:13:34;;;;;;;15.52;2.70;;;10.60;99.90;;;11.31;50.84;99479.75;4972091;28;20022;-71
2022/04/05 07:16:00;;;;;;;14.18;2.25;;;11.30;99.90;;;13.23;45.45;99485.03;4964301;28;20019;-73
2022/04/05 07:18:26;;;;;;;8.18;1.48;;;11.40;99.90;;;11.52;46.51;99488.81;4998405;28;20117;-72
2022/04/05 07:20:52;;;;;;;17.10;3.25;;;10.70;99.90;;;10.45;48.46;99487.25;4985738;28;20406;-73
2022/04/05 07:23:19;;;;;;;8.55;1.98;;;10.60;99.90;;;11.04;46.26;99501.78;4980504;28;20092;-74
2022/04/05 07:25:45;;;;;;;11.82;2.10;;;11.00;99.90;;;12.67;45.32;99514.78;4976842;28;20557;-72
2022/04/05 07:28:11;;;;;;;11.48;1.50;;;11.20;99.90;;;12.15;44.08;99507.25;4959431;28;20213;-72
2022/04/05 07:30:37;;;;;;;8.25;1.65;;;11.10;99.90;;;11.75;44.45;99505.66;4980831;28;20803;-72
2022/04/05 07:33:03;;;;;;;7.10;1.70;;;11.50;99.90;;;12.25;44.65;99522.28;4984359;28;20083;-71
2022/04/05 07:35:29;;;;;;;11.13;1.83;;;11.70;99.90;;;12.35;43.18;99535.66;4964858;28;20073;-72
2022/04/05 07:37:55;;;;;;;8.57;1.67;;;11.40;99.00;;;11.49;43.49;99524.13;4984843;28;20030;-73
2022/04/05 07:40:21;;;;;;;5.68;1.30;;;11.20;98.20;;;11.20;42.70;99531.41;4982131;28;20038;-72
2022/04/05 07:42:48;;;;;;;5.50;1.77;;;11.10;99.20;;;10.79;44.16;99513.97;4975796;28;20737;-74
2022/04/05 07:45:16;;;;;;;9.55;1.75;;;11.20;99.40;;;11.79;44.34;99537.91;4973496;28;20026;-73
2022/04/05 07:47:43;;;;;;;8.73;1.88;;;11.50;98.70;;;11.76;43.47;99541.59;4974847;28;20112;-72
2022/04/05 07:50:10;;;;;;;14.35;1.63;;;11.50;97.20;;;11.67;42.92;99556.28;4972463;28;20056;-73
2022/04/05 07:52:36;;;;;;;4.65;1.15;;;11.70;98.00;;;11.58;43.02;99556.09;4985513;28;20030;-73
2022/04/05 07:55:04;;;;;;;15.63;2.30;;;12.00;97.70;;;12.48;42.56;99568.16;4981335;28;20518;-73
2022/04/05 07:57:30;;;;;;;10.65;1.83;;;12.80;96.40;;;13.25;40.34;99570.34;4983125;28;20030;-72
2022/04/05 07:59:58;;;;;;;9.80;2.05;;;12.90;95.30;;;12.79;40.21;99587.00;4979896;28;20113;-72
2022/04/05 08:02:24;;;;;;;16.20;2.22;;;12.70;93.90;;;11.87;41.05;99583.88;4983533;28;20410;-74
2022/04/05 08:04:50;;;;;;;9.55;1.77;;;12.20;93.80;;;11.02;41.88;99583.53;4987802;28;20037;-73
2022/04/05 08:07:16;;;;;;;9.50;1.55;;;11.90;94.40;;;10.99;41.93;99604.84;4982855;28;20035;-73
2022/04/05 08:09:42;;;;;;;8.88;1.65;;;11.80;96.20;;;10.98;43.60;99595.22;4981812;28;20045;-73
2022/04/05 08:12:09;;;;;;;9.27;1.55;;;11.80;95.20;;;10.78;42.72;99595.72;4956473;28;20034;-74
2022/04/05 08:14:35;;;;;;;11.98;2.05;;;11.80;95.70;;;10.97;43.68;99603.22;4982244;28;20029;-72
2022/04/05 08:17:01;;;;;;;7.53;1.50;;;11.90;96.10;;;11.26;43.93;99607.41;4979174;28;20030;-72
2022/04/05 08:19:27;;;;;;;7.28;1.77;;;11.80;95.30;;;10.84;43.36;99601.41;4979624;28;20506;-72
2022/04/05 08:21:53;;;;;;;4.10;1.88;;;11.60;94.80;;;10.35;43.29;99609.84;4982387;28;20022;-74
2022/04/05 08:24:20;;;;;;;9.02;1.65;;;11.40;96.40;;;10.36;45.58;99608.03;4981620;28;20019;-73
2022/04/05 08:26:47;;;;;;;8.02;1.75;;;11.40;95.50;;;10.53;44.25;99613.06;4980532;28;20118;-74
2022/04/05 08:29:13;;;;;;;6.75;1.40;;;11.70;94.30;;;10.59;42.32;99607.41;4979244;28;20040;-72
2022/04/05 08:31:39;;;;;;;2.65;0.80;;;11.70;95.10;;;10.73;43.10;99619.69;4981773;28;20096;-72
2022/04/05 08:34:06;;;;;;;2.95;0.93;;;11.50;94.00;;;10.11;42.47;99627.09;4979337;28;20022;-73
2022/04/05 08:36:32;;;;;;;7.43;1.25;;;11.20;95.00;;;9.89;44.22;99623.16;4982368;28;20030;-72
2022/04/05 08:38:58;;;;;;;6.28;1.45;;;11.20;95.80;;;10.08;44.94;99638.66;4978177;28;20053;-72
2022/04/05 08:41:26;;;;;;;7.97;1.20;;;11.60;97.00;;;10.99;45.53;99644.34;4995419;28;20030;-72
2022/04/05 08:43:53;;;;;;;11.15;2.17;;;11.70;97.40;;;10.40;46.58;99633.22;4962129;28;20663;-72
2022/04/05 08:46:21;;;;;;;9.77;2.05;;;11.40;97.60;;;10.12;47.24;99644.59;4983922;28;20046;-71
2022/04/05 08:48:50;;;;;;;9.98;2.00;;;11.40;98.20;;;10.47;47.40;99642.41;4955223;28;20031;-72
2022/04/05 08:51:17;;;;;;;13.73;2.10;;;11.70;96.50;;;10.81;45.53;99654.25;4984474;28;20038;-72
2022/04/05 08:53:43;;;;;;;8.07;1.40;;;11.90;95.10;;;11.10;44.12;99664.72;4993174;28;20105;-72
2022/04/05 08:56:09;;;;;;;14.38;1.15;;;11.40;95.00;;;9.82;44.85;99663.94;4984013;28;20046;-73
2022/04/05 08:58:35;;;;;;;6.97;1.55;;;10.90;95.80;;;9.35;46.24;99659.72;4980283;28;20033;-72
2022/04/05 09:01:05;;;;;;;8.98;1.45;;;10.00;96.40;;;8.06;48.22;99659.03;4976435;28;20407;-73
2022/04/05 09:03:33;;;;;;;7.88;1.25;;;9.70;98.60;;;8.02;49.83;99651.31;4980050;28;20026;-72
2022/04/05 09:06:27;;;;;;;9.35;1.25;;;9.70;99.90;;;8.94;50.32;99653.31;4982383;28;20026;-72
2022/04/05 09:09:11;;;;;;;5.13;1.65;;;9.80;98.20;;;8.68;48.29;99660.00;4981546;28;20450;-74
2022/04/05 09:11:48;;;;;;;9.20;1.70;;;9.60;99.30;;;8.55;50.32;99665.13;4964965;28;20038;-72
2022/04/05 09:14:21;;;;;;;7.85;1.50;;;9.70;98.80;;;8.69;49.61;99666.97;4977621;28;20101;-72
2022/04/05 09:17:02;;;;;;;11.38;1.63;;;9.70;98.90;;;8.64;50.07;99669.00;4969969;28;20065;-72
2022/04/05 09:19:37;;;;;;;8.10;1.52;;;9.60;99.90;;;8.03;51.20;99667.88;4978024;28;20122;-72
2022/04/05 09:22:04;;;;;;;14.20;1.88;;;9.10;99.90;;;7.46;52.44;99675.22;4977981;28;20138;-72
2022/04/05 09:24:35;;;;;;;5.60;1.00;;;8.70;98.00;;;6.94;50.66;99683.88;4979521;28;20027;-74
2022/04/05 09:27:01;;;;;;;3.13;0.77;;;8.40;99.00;;;6.88;51.15;99671.91;4969683;28;20383;-72
2022/04/05 09:29:54;;;;;;;3.70;0.82;;;8.60;99.90;;;7.39;51.81;99683.38;4976908;28;20085;-72
2022/04/05 09:32:39;;;;;;;7.60;1.30;;;8.80;99.90;;;7.80;52.30;99676.97;4962138;28;20410;-73
2022/04/05 09:35:07;;;;;;;11.73;1.43;;;9.20;99.90;;;8.51;53.28;99689.81;4982939;28;20117;-72
2022/04/05 09:37:38;;;;;;;6.82;1.10;;;9.50;99.90;;;8.41;51.14;99694.72;4978727;28;20117;-72
2022/04/05 09:40:24;;;;;;;4.70;0.93;;;9.30;98.90;;;7.86;49.63;99694.13;4965142;28;20054;-72
2022/04/05 09:43:12;;;;;;;6.82;0.75;;;9.20;98.80;;;7.93;50.17;99685.88;4977807;28;20050;-72
2022/04/05 09:46:00;;;;;;;6.00;1.40;;;9.10;98.90;;;7.86;50.38;99689.75;4980240;28;20049;-72
2022/04/05 09:48:36;;;;;;;6.20;0.57;;;9.20;99.80;;;7.94;50.40;99692.78;4980618;28;20474;-72
2022/04/05 09:51:12;;;;;;;8.35;0.98;;;9.20;99.50;;;7.93;50.24;99687.66;4978760;28;20479;-72
2022/04/05 09:53:38;;;;;;;5.88;0.75;;;9.20;99.90;;;8.01;51.60;99712.53;4988105;28;20026;-71
2022/04/05 09:56:33;;;;;;;5.32;0.90;;;9.40;99.30;;;8.56;50.46;99718.44;4997139;28;20602;-72
2022/04/05 09:59:03;;;;;;;2.33;0.90;;;9.70;98.40;;;8.80;48.08;99724.09;4981053;28;20034;-72
2022/04/05 10:01:36;;;;;;;7.72;0.90;;;9.90;97.30;;;8.94;47.25;99718.94;4981582;28;20040;-72
2022/04/05 10:04:14;;;;;;;6.68;1.17;;;9.90;96.10;;;8.86;46.24;99736.91;4977569;28;20029;-71
2022/04/05 10:06:47;;;;;;;4.18;0.88;;;9.70;95.40;;;8.30;45.44;99727.66;4965934;28;20064;-71
2022/04/05 10:09:21;;;;;;;6.82;0.95;;;9.50;96.50;;;7.91;47.68;99739.31;5002992;28;20154;-73
2022/04/05 10:11:48;;;;;;;4.32;0.85;;;9.10;97.10;;;7.59;47.87;99742.63;4985375;28;20038;-72
2022/04/05 10:14:23;;;;;;;5.85;1.35;;;9.10;97.90;;;7.72;49.01;99740.22;4987552;28;20564;-72
2022/04/05 10:16:51;;;;;;;8.65;1.10;;;9.40;99.90;;;8.51;50.58;99744.91;4970315;28;20073;-72
2022/04/05 10:19:19;;;;;;;2.58;0.77;;;9.70;98.10;;;8.91;47.88;99728.75;4983832;28;20022;-72
2022/04/05 10:21:49;;;;;;;6.70;1.48;;;10.00;99.70;;;9.35;48.76;99749.03;4987130;28;20040;-72
2022/04/05 10:24:17;;;;;;;3.60;1.00;;;10.30;98.90;;;9.53;48.19;99741.91;4986918;28;20014;-71
2022/04/05 10:26:50;;;;;;;8.32;1.17;;;10.60;98.10;;;9.85;47.11;99751.38;4985526;28;21579;-71
2022/04/05 10:29:19;;;;;;;8.25;0.98;;;10.80;97.40;;;10.11;46.48;99743.72;4987415;28;20034;-72
2022/04/05 10:32:19;;;;;;;8.02;1.00;;;11.10;96.90;;;10.32;45.77;99749.47;4978188;28;20084;-71